Grey Cloud Island, Minnesota
Current Conditions -  °F | °C
As of 4:50 PM on Wednesday 26 Nov 2014 (Local Time) from KSGS Reporting Station
Broken Clouds Broken Clouds  
Wind Chill: 24°   Ceiling: 4600
Heat Index: 24°   Visibility: 10mi
Dew Point: 17°   Wind: 3mph
Humidity: 72%   Direction: 340°NNW
Pressure: 30.26"   Gusts: NA
Location:  44.8338°N, 92.9932°W
Report Text: KSGS 262250Z AUTO 34003KT 10SM SCT023 SCT041 BKN046 M04/M09 A3026 RMK AO2 T10421086
Loading
Personal Weather Stations






























Interactive Weather Map New forecast layout! Learn more

10-Day Weather Forecast

Advertisements
Track Severe Weather on mobile